Time;durP1;ratioP1;P1;durP2;ratioP2;P2;SDS_P1;SDS_P2;PMS_P1;PMS_P2;Temp;Humidity;BMP_temperature;BMP_pressure;BME280_temperature;BME280_humidity;BME280_pressure;Samples;Min_cycle;Max_cycle;Signal;HPM_P1;HPM_P2
2022/09/17 00:00:20;;;;;;;4.25;1.92;;;;;;;;;;5015666;28;20025;-79
2022/09/17 00:02:50;;;;;;;3.95;2.20;;;;;;;;;;5015693;28;20025;-80
2022/09/17 00:05:16;;;;;;;5.80;2.22;;;;;;;;;;5015601;28;20026;-80
2022/09/17 00:07:42;;;;;;;4.72;2.47;;;;;;;;;;5015527;28;20029;-81
2022/09/17 00:10:08;;;;;;;7.35;2.60;;;;;;;;;;5015591;28;20146;-80
2022/09/17 00:12:35;;;;;;;5.13;2.40;;;;;;;;;;5015202;28;20018;-81
2022/09/17 00:15:01;;;;;;;4.85;2.47;;;;;;;;;;5015513;28;20060;-80
2022/09/17 00:17:27;;;;;;;5.28;2.47;;;;;;;;;;5015176;28;20111;-80
2022/09/17 00:19:53;;;;;;;5.43;2.00;;;;;;;;;;5015323;28;20030;-80
2022/09/17 00:22:19;;;;;;;5.35;2.25;;;;;;;;;;5015453;28;20026;-80
2022/09/17 00:24:45;;;;;;;5.68;2.53;;;;;;;;;;5015132;28;20022;-81
2022/09/17 00:27:11;;;;;;;3.88;2.75;;;;;;;;;;5015319;28;20408;-80
2022/09/17 00:29:38;;;;;;;4.78;2.35;;;;;;;;;;5014870;28;20113;-80
2022/09/17 00:32:04;;;;;;;6.75;2.63;;;;;;;;;;5015178;28;20017;-80
2022/09/17 00:34:30;;;;;;;5.38;2.10;;;;;;;;;;5014718;28;20096;-81
2022/09/17 00:36:56;;;;;;;7.50;2.70;;;;;;;;;;5015078;28;20025;-80
2022/09/17 00:39:22;;;;;;;5.75;2.28;;;;;;;;;;5015086;28;20029;-80
2022/09/17 00:41:49;;;;;;;5.38;2.03;;;;;;;;;;5014799;28;20416;-80
2022/09/17 00:44:34;;;;;;;5.80;1.90;;;;;;;;;;5014907;28;20026;-80
2022/09/17 00:47:00;;;;;;;3.17;1.90;;;;;;;;;;5014811;28;20065;-81
2022/09/17 00:49:28;;;;;;;5.65;2.58;;;;;;;;;;5014604;28;20030;-80
2022/09/17 00:51:57;;;;;;;4.32;2.25;;;;;;;;;;5014757;28;20060;-80
2022/09/17 00:54:23;;;;;;;7.03;2.63;;;;;;;;;;5014547;28;20100;-80
2022/09/17 00:56:51;;;;;;;4.75;2.45;;;;;;;;;;5014615;28;20026;-80
2022/09/17 00:59:17;;;;;;;6.57;2.45;;;;;;;;;;5014577;28;20378;-80
2022/09/17 01:01:43;;;;;;;7.85;3.00;;;;;;;;;;5014571;28;20378;-80
2022/09/17 01:04:17;;;;;;;4.82;2.88;;;;;;;;;;5014721;28;20018;-81
2022/09/17 01:06:49;;;;;;;5.33;2.13;;;;;;;;;;5014622;28;20481;-80
2022/09/17 01:09:33;;;;;;;5.38;2.28;;;;;;;;;;5014248;28;20057;-80
2022/09/17 01:11:59;;;;;;;;;;;;;;;;;;5014546;28;20026;-80
2022/09/17 01:14:25;;;;;;;6.45;2.20;;;;;;;;;;5014410;28;20004;-80
2022/09/17 01:17:10;;;;;;;4.78;2.08;;;;;;;;;;5014285;28;20022;-81
2022/09/17 01:19:52;;;;;;;4.35;2.50;;;;;;;;;;5014287;28;20026;-80
2022/09/17 01:22:18;;;;;;;4.95;2.30;;;;;;;;;;5012993;28;20022;-81
2022/09/17 01:24:46;;;;;;;4.60;2.88;;;;;;;;;;5013442;28;20101;-81
2022/09/17 01:27:31;;;;;;;5.20;2.10;;;;;;;;;;5014171;28;20470;-80
2022/09/17 01:30:20;;;;;;;5.03;2.05;;;;;;;;;;5014011;28;20037;-80
2022/09/17 01:32:55;;;;;;;7.65;2.30;;;;;;;;;;5013985;28;20022;-81
2022/09/17 01:35:27;;;;;;;7.47;2.55;;;;;;;;;;5013821;28;20060;-79
2022/09/17 01:38:02;;;;;;;5.45;2.25;;;;;;;;;;5013676;28;20026;-80
2022/09/17 01:40:33;;;;;;;5.80;3.08;;;;;;;;;;5013905;28;20029;-81
2022/09/17 01:42:59;;;;;;;5.55;2.75;;;;;;;;;;5013723;28;20053;-81
2022/09/17 01:45:44;;;;;;;5.40;2.60;;;;;;;;;;5013789;28;20089;-81
2022/09/17 01:48:28;;;;;;;5.30;2.33;;;;;;;;;;5013728;28;20105;-80
2022/09/17 01:50:54;;;;;;;;;;;;;;;;;;5014102;28;20112;-80
2022/09/17 01:53:23;;;;;;;7.05;2.90;;;;;;;;;;5013477;28;20010;-80
2022/09/17 01:55:51;;;;;;;6.00;2.72;;;;;;;;;;5013619;28;20461;-80
2022/09/17 01:58:20;;;;;;;8.65;2.50;;;;;;;;;;5013380;28;20376;-81
2022/09/17 02:00:50;;;;;;;4.95;2.63;;;;;;;;;;5013650;28;20085;-80
2022/09/17 02:03:29;;;;;;;5.75;2.22;;;;;;;;;;5013251;28;20025;-81
2022/09/17 02:06:14;;;;;;;5.40;2.58;;;;;;;;;;5013263;28;20026;-80
2022/09/17 02:08:51;;;;;;;4.47;2.47;;;;;;;;;;5013300;28;20084;-80
2022/09/17 02:11:19;;;;;;;4.45;2.50;;;;;;;;;;5013470;28;20014;-79
2022/09/17 02:13:54;;;;;;;6.07;2.40;;;;;;;;;;5013495;28;20442;-79
2022/09/17 02:16:38;;;;;;;6.10;2.80;;;;;;;;;;5013268;28;20428;-80
2022/09/17 02:19:06;;;;;;;4.72;2.45;;;;;;;;;;5013161;28;20025;-80
2022/09/17 02:21:38;;;;;;;4.53;2.60;;;;;;;;;;5013212;28;20018;-80
2022/09/17 02:24:18;;;;;;;4.30;2.30;;;;;;;;;;5013170;28;20018;-80
2022/09/17 02:26:55;;;;;;;5.82;2.47;;;;;;;;;;5013183;28;20409;-81
2022/09/17 02:29:29;;;;;;;4.90;2.15;;;;;;;;;;5013021;28;20046;-80
2022/09/17 02:31:55;;;;;;;5.80;2.47;;;;;;;;;;5012847;28;20500;-80
2022/09/17 02:34:22;;;;;;;5.05;2.67;;;;;;;;;;5012940;28;20056;-80
2022/09/17 02:36:48;;;;;;;5.32;2.70;;;;;;;;;;5012039;28;20442;-80
2022/09/17 02:39:14;;;;;;;7.78;2.53;;;;;;;;;;5012893;28;20473;-82
2022/09/17 02:41:40;;;;;;;4.18;2.65;;;;;;;;;;5012932;28;20392;-81
2022/09/17 02:44:25;;;;;;;6.82;2.85;;;;;;;;;;5012710;28;20022;-81
2022/09/17 02:47:10;;;;;;;5.20;3.15;;;;;;;;;;5012726;28;20489;-80
2022/09/17 02:49:55;;;;;;;8.15;2.70;;;;;;;;;;5012626;28;20057;-80
2022/09/17 02:52:40;;;;;;;7.22;3.20;;;;;;;;;;5012574;28;20374;-80
2022/09/17 02:55:06;;;;;;;5.85;3.03;;;;;;;;;;5012640;28;20034;-81
2022/09/17 02:57:38;;;;;;;6.88;3.05;;;;;;;;;;5012695;28;20030;-80
2022/09/17 03:00:10;;;;;;;5.32;2.97;;;;;;;;;;5012467;28;20026;-81
2022/09/17 03:02:39;;;;;;;5.18;2.60;;;;;;;;;;5012736;28;20057;-80
2022/09/17 03:05:07;;;;;;;5.10;3.30;;;;;;;;;;5012666;28;20084;-82
2022/09/17 03:07:33;;;;;;;5.10;3.15;;;;;;;;;;5012210;28;20018;-80
2022/09/17 03:09:59;;;;;;;6.90;3.30;;;;;;;;;;5012416;28;20037;-80
2022/09/17 03:12:26;;;;;;;5.90;3.25;;;;;;;;;;5012773;28;20030;-81
2022/09/17 03:14:52;;;;;;;6.47;3.15;;;;;;;;;;5012456;28;20022;-81
2022/09/17 03:17:18;;;;;;;5.80;2.65;;;;;;;;;;5012664;28;20057;-81
2022/09/17 03:19:44;;;;;;;5.97;2.50;;;;;;;;;;5012520;28;20044;-80
2022/09/17 03:22:11;;;;;;;5.18;3.03;;;;;;;;;;5012427;28;20093;-80
2022/09/17 03:24:37;;;;;;;12.40;3.30;;;;;;;;;;5012521;28;20408;-80
2022/09/17 03:27:03;;;;;;;3.90;2.72;;;;;;;;;;5012425;28;20030;-80
2022/09/17 03:29:29;;;;;;;6.07;3.60;;;;;;;;;;5011146;28;20072;-80
2022/09/17 03:31:55;;;;;;;6.13;3.20;;;;;;;;;;5012350;28;20033;-81
2022/09/17 03:34:22;;;;;;;7.10;3.60;;;;;;;;;;5012199;28;20049;-82
2022/09/17 03:36:49;;;;;;;5.72;3.70;;;;;;;;;;5012301;28;20445;-82
2022/09/17 03:39:15;;;;;;;4.07;3.28;;;;;;;;;;5012477;28;20025;-80
2022/09/17 03:41:41;;;;;;;5.45;3.30;;;;;;;;;;5012440;28;20444;-82
2022/09/17 03:44:09;;;;;;;6.78;3.65;;;;;;;;;;5012099;28;20030;-80
2022/09/17 03:46:35;;;;;;;9.05;4.57;;;;;;;;;;5012890;28;20033;-80
2022/09/17 03:49:01;;;;;;;7.40;4.72;;;;;;;;;;5015606;28;20543;-82
2022/09/17 03:51:27;;;;;;;8.30;3.42;;;;;;;;;;5015986;28;20354;-80
2022/09/17 03:53:53;;;;;;;13.48;11.45;;;;;;;;;;5015804;28;20018;-81
2022/09/17 03:56:19;;;;;;;7.82;4.70;;;;;;;;;;5015705;28;20029;-80
2022/09/17 03:58:45;;;;;;;5.78;3.95;;;;;;;;;;5014533;28;20416;-80
2022/09/17 04:01:11;;;;;;;5.60;4.00;;;;;;;;;;5015585;28;20022;-82
2022/09/17 04:03:37;;;;;;;7.93;3.75;;;;;;;;;;5015666;28;20377;-82
2022/09/17 04:06:04;;;;;;;8.48;3.72;;;;;;;;;;5015477;28;20464;-81
2022/09/17 04:08:30;;;;;;;8.27;3.97;;;;;;;;;;5015468;28;20028;-81
2022/09/17 04:10:56;;;;;;;8.93;4.15;;;;;;;;;;5015485;28;20029;-83
2022/09/17 04:13:22;;;;;;;9.35;4.15;;;;;;;;;;5014130;28;20440;-82
2022/09/17 04:15:48;;;;;;;18.90;15.60;;;;;;;;;;5015559;28;20021;-81
2022/09/17 04:18:14;;;;;;;8.40;5.07;;;;;;;;;;5015270;28;20022;-81
2022/09/17 04:20:40;;;;;;;6.18;3.95;;;;;;;;;;5015333;28;20030;-81
2022/09/17 04:23:06;;;;;;;6.38;4.05;;;;;;;;;;5015192;28;20025;-80
2022/09/17 04:25:33;;;;;;;8.38;3.95;;;;;;;;;;5015126;28;20030;-81
2022/09/17 04:27:59;;;;;;;7.65;3.63;;;;;;;;;;5015258;28;20033;-82
2022/09/17 04:30:25;;;;;;;6.82;4.20;;;;;;;;;;5014952;28;20033;-80
2022/09/17 04:32:51;;;;;;;11.20;7.53;;;;;;;;;;5015178;28;20026;-81
2022/09/17 04:35:17;;;;;;;8.93;5.45;;;;;;;;;;5014756;28;20050;-80
2022/09/17 04:37:43;;;;;;;14.60;9.65;;;;;;;;;;5015213;28;20025;-82
2022/09/17 04:40:10;;;;;;;6.80;4.45;;;;;;;;;;5014830;28;20481;-80
2022/09/17 04:42:36;;;;;;;25.40;22.63;;;;;;;;;;5015036;28;20025;-81
2022/09/17 04:45:02;;;;;;;24.45;20.83;;;;;;;;;;5014968;28;20030;-82
2022/09/17 04:47:28;;;;;;;8.07;6.32;;;;;;;;;;5014755;28;20381;-80
2022/09/17 04:49:54;;;;;;;13.00;11.32;;;;;;;;;;5014927;28;20057;-80
2022/09/17 04:52:20;;;;;;;19.17;14.43;;;;;;;;;;5014547;28;20022;-81
2022/09/17 04:54:46;;;;;;;16.02;14.23;;;;;;;;;;5014801;28;20628;-81
2022/09/17 04:57:12;;;;;;;12.18;9.57;;;;;;;;;;5014660;28;20072;-81
2022/09/17 04:59:38;;;;;;;9.45;4.13;;;;;;;;;;5013660;28;20053;-81
2022/09/17 05:02:04;;;;;;;7.70;3.63;;;;;;;;;;5014638;28;20084;-80
2022/09/17 05:04:30;;;;;;;8.93;4.28;;;;;;;;;;5014459;28;20029;-82
2022/09/17 05:06:56;;;;;;;5.95;4.53;;;;;;;;;;5014650;28;20056;-80
2022/09/17 05:09:22;;;;;;;8.60;4.45;;;;;;;;;;5014054;28;20061;-81
2022/09/17 05:11:48;;;;;;;10.73;4.60;;;;;;;;;;5013187;28;20022;-81
2022/09/17 05:14:15;;;;;;;6.13;3.63;;;;;;;;;;5013991;28;20373;-80
2022/09/17 05:16:41;;;;;;;6.50;4.35;;;;;;;;;;5014097;28;20022;-81
2022/09/17 05:19:07;;;;;;;7.47;4.00;;;;;;;;;;5014237;28;20029;-80
2022/09/17 05:21:33;;;;;;;7.80;4.70;;;;;;;;;;5014008;28;20022;-80
2022/09/17 05:24:00;;;;;;;10.32;7.03;;;;;;;;;;5014204;28;20104;-81
2022/09/17 05:26:26;;;;;;;10.98;5.95;;;;;;;;;;5014039;28;20025;-81
2022/09/17 05:28:52;;;;;;;15.00;6.97;;;;;;;;;;5014731;28;20042;-81
2022/09/17 05:31:18;;;;;;;7.35;5.05;;;;;;;;;;5014054;28;20018;-82
2022/09/17 05:33:44;;;;;;;10.30;6.35;;;;;;;;;;5013635;28;20061;-80
2022/09/17 05:36:10;;;;;;;9.35;6.35;;;;;;;;;;5013929;28;20528;-83
2022/09/17 05:38:37;;;;;;;10.10;7.30;;;;;;;;;;5013782;28;20081;-81
2022/09/17 05:41:05;;;;;;;12.30;7.38;;;;;;;;;;5013908;28;20033;-82
2022/09/17 05:43:31;;;;;;;11.30;7.65;;;;;;;;;;5013633;28;20346;-80
2022/09/17 05:46:00;;;;;;;9.95;7.25;;;;;;;;;;5013853;28;20022;-80
2022/09/17 05:48:26;;;;;;;10.40;7.80;;;;;;;;;;5013565;28;20025;-80
2022/09/17 05:50:54;;;;;;;13.98;9.10;;;;;;;;;;5013582;28;20029;-80
2022/09/17 05:53:20;;;;;;;11.82;7.80;;;;;;;;;;5013712;28;20083;-80
2022/09/17 05:55:46;;;;;;;10.68;7.95;;;;;;;;;;5013572;28;20456;-84
2022/09/17 05:58:14;;;;;;;10.55;6.88;;;;;;;;;;5031371;28;20026;-87
2022/09/17 06:00:40;;;;;;;10.20;5.78;;;;;;;;;;5017208;28;20029;-84
2022/09/17 06:03:07;;;;;;;7.10;5.63;;;;;;;;;;5013502;28;20022;-85
2022/09/17 06:05:33;;;;;;;9.50;6.55;;;;;;;;;;5013537;28;20481;-86
2022/09/17 06:07:59;;;;;;;9.48;6.32;;;;;;;;;;5013497;28;20034;-82
2022/09/17 06:10:25;;;;;;;7.85;5.75;;;;;;;;;;5013072;28;20478;-84
2022/09/17 06:13:10;;;;;;;10.93;7.63;;;;;;;;;;5013013;28;20030;-87
2022/09/17 06:15:37;;;;;;;11.80;6.63;;;;;;;;;;4995151;28;20030;-87
2022/09/17 06:18:12;;;;;;;10.25;6.65;;;;;;;;;;4985333;28;20038;-87
2022/09/17 06:20:38;;;;;;;10.13;6.70;;;;;;;;;;5013095;28;20026;-86
2022/09/17 06:23:04;;;;;;;10.75;6.43;;;;;;;;;;5022803;28;20032;-88
2022/09/17 06:25:30;;;;;;;12.88;7.40;;;;;;;;;;5021601;28;20022;-87
2022/09/17 06:27:56;;;;;;;18.90;8.77;;;;;;;;;;5012211;28;20029;-89
2022/09/17 06:30:22;;;;;;;15.25;8.20;;;;;;;;;;5013175;28;20079;-87
2022/09/17 06:32:49;;;;;;;11.43;7.70;;;;;;;;;;5022564;28;20080;-87
2022/09/17 06:35:15;;;;;;;14.60;7.35;;;;;;;;;;5021199;28;20074;-86
2022/09/17 06:37:41;;;;;;;14.13;9.50;;;;;;;;;;5013188;28;20385;-86
2022/09/17 06:40:08;;;;;;;13.85;11.57;;;;;;;;;;5014797;28;20032;-87
2022/09/17 06:42:34;;;;;;;12.23;7.10;;;;;;;;;;5020395;28;20030;-85
2022/09/17 06:45:00;;;;;;;13.30;7.60;;;;;;;;;;5022120;28;20055;-86
2022/09/17 06:47:26;;;;;;;11.10;7.60;;;;;;;;;;5022051;28;20077;-86
2022/09/17 06:49:53;;;;;;;11.15;6.72;;;;;;;;;;5014528;28;20117;-86
2022/09/17 06:52:19;;;;;;;10.63;6.00;;;;;;;;;;5012867;28;20086;-87
2022/09/17 06:54:45;;;;;;;8.05;5.82;;;;;;;;;;5011454;28;20037;-84
2022/09/17 06:57:12;;;;;;;10.93;6.55;;;;;;;;;;5011951;28;20025;-85
2022/09/17 06:59:38;;;;;;;11.55;6.40;;;;;;;;;;5009911;28;20393;-83
2022/09/17 07:02:04;;;;;;;8.00;4.80;;;;;;;;;;5015038;28;20026;-84
2022/09/17 07:04:30;;;;;;;9.30;4.65;;;;;;;;;;5020795;28;20049;-85
2022/09/17 07:06:56;;;;;;;7.03;5.00;;;;;;;;;;5022954;28;20515;-83
2022/09/17 07:09:22;;;;;;;10.02;6.47;;;;;;;;;;5019680;28;20052;-83
2022/09/17 07:11:48;;;;;;;10.82;6.38;;;;;;;;;;5032129;28;20040;-84
2022/09/17 07:14:14;;;;;;;9.45;6.82;;;;;;;;;;5032339;28;20025;-84
2022/09/17 07:16:40;;;;;;;9.43;6.82;;;;;;;;;;5031998;28;20025;-85
2022/09/17 07:19:06;;;;;;;10.20;6.63;;;;;;;;;;5032253;28;20030;-85
2022/09/17 07:21:32;;;;;;;13.60;7.78;;;;;;;;;;5014890;28;20075;-85
2022/09/17 07:23:59;;;;;;;13.00;7.95;;;;;;;;;;5037772;28;20032;-85
2022/09/17 07:26:25;;;;;;;13.10;9.65;;;;;;;;;;5018652;28;20076;-84
2022/09/17 07:28:51;;;;;;;11.25;7.53;;;;;;;;;;5035859;28;20396;-84
2022/09/17 07:31:17;;;;;;;9.77;5.95;;;;;;;;;;5027946;28;20056;-83
2022/09/17 07:33:44;;;;;;;7.28;5.68;;;;;;;;;;5024887;28;20462;-85
2022/09/17 07:36:11;;;;;;;11.52;6.22;;;;;;;;;;5023272;28;20022;-84
2022/09/17 07:38:38;;;;;;;9.27;5.75;;;;;;;;;;5014319;28;20041;-84
2022/09/17 07:41:11;;;;;;;7.90;4.85;;;;;;;;;;5021978;28;20026;-84
2022/09/17 07:43:37;;;;;;;9.17;5.87;;;;;;;;;;5023397;28;20156;-87
2022/09/17 07:46:04;;;;;;;6.97;5.03;;;;;;;;;;5015798;28;20294;-85
2022/09/17 07:48:31;;;;;;;10.40;5.10;;;;;;;;;;5019044;28;20026;-84
2022/09/17 07:50:57;;;;;;;8.40;5.82;;;;;;;;;;5015643;28;20144;-85
2022/09/17 07:53:23;;;;;;;9.00;6.82;;;;;;;;;;5016038;28;20038;-87
2022/09/17 07:55:53;;;;;;;9.15;7.00;;;;;;;;;;5025419;28;20038;-86
2022/09/17 07:58:20;;;;;;;9.95;8.95;;;;;;;;;;5022270;28;20022;-87
2022/09/17 08:00:47;;;;;;;8.77;6.00;;;;;;;;;;5023112;28;20033;-87
2022/09/17 08:03:16;;;;;;;23.70;21.20;;;;;;;;;;5019594;28;20022;-86
2022/09/17 08:05:45;;;;;;;6.20;3.33;;;;;;;;;;5015017;28;20392;-85
2022/09/17 08:08:11;;;;;;;5.82;2.28;;;;;;;;;;5026319;28;20029;-86
2022/09/17 08:10:40;;;;;;;7.63;3.28;;;;;;;;;;5019786;28;20045;-85
2022/09/17 08:13:06;;;;;;;8.20;2.47;;;;;;;;;;5015608;28;20045;-85
2022/09/17 08:15:32;;;;;;;8.40;2.70;;;;;;;;;;5015448;28;20034;-86
2022/09/17 08:18:00;;;;;;;8.63;2.95;;;;;;;;;;5015175;28;20050;-84
2022/09/17 08:20:26;;;;;;;6.60;3.10;;;;;;;;;;5020669;28;20029;-85
2022/09/17 08:22:59;;;;;;;13.77;4.18;;;;;;;;;;5024133;28;20539;-85
2022/09/17 08:25:25;;;;;;;7.90;3.50;;;;;;;;;;5019759;28;20037;-85
2022/09/17 08:28:10;;;;;;;9.30;4.22;;;;;;;;;;5005608;28;20121;-88
2022/09/17 08:30:36;;;;;;;8.10;3.95;;;;;;;;;;5021467;28;20092;-87
2022/09/17 08:33:05;;;;;;;7.75;3.42;;;;;;;;;;5013833;28;20021;-88
2022/09/17 08:35:32;;;;;;;6.57;4.03;;;;;;;;;;5012561;28;20052;-86
2022/09/17 08:37:58;;;;;;;10.98;5.65;;;;;;;;;;5010971;28;20404;-87
2022/09/17 08:40:26;;;;;;;18.95;8.40;;;;;;;;;;5014460;28;20087;-83
2022/09/17 08:42:58;;;;;;;11.05;5.32;;;;;;;;;;5015025;28;20488;-82
2022/09/17 08:45:25;;;;;;;10.57;4.43;;;;;;;;;;5013159;28;20422;-82
2022/09/17 08:47:52;;;;;;;13.30;4.30;;;;;;;;;;5013422;28;20026;-82
2022/09/17 08:50:26;;;;;;;7.82;3.45;;;;;;;;;;5013672;28;20066;-81
2022/09/17 08:53:11;;;;;;;19.55;12.52;;;;;;;;;;5012308;28;20119;-83
2022/09/17 08:55:43;;;;;;;11.02;5.45;;;;;;;;;;5016386;28;20025;-80
2022/09/17 08:58:27;;;;;;;11.30;5.15;;;;;;;;;;5024346;28;20022;-82
2022/09/17 09:00:54;;;;;;;;;;;;;;;;;;5013908;28;20022;-82
2022/09/17 09:03:39;;;;;;;20.42;7.43;;;;;;;;;;5013344;28;20002;-82
2022/09/17 09:06:05;;;;;;;10.40;5.50;;;;;;;;;;5018397;28;20014;-83
2022/09/17 09:08:42;;;;;;;13.95;10.55;;;;;;;;;;4983358;28;20031;-85
2022/09/17 09:11:16;;;;;;;11.27;8.13;;;;;;;;;;4996536;28;20393;-85
2022/09/17 09:13:43;;;;;;;;;;;;;;;;;;5014718;28;20022;-85
2022/09/17 09:16:16;;;;;;;9.30;4.38;;;;;;;;;;5019451;28;19912;-83
2022/09/17 09:18:43;;;;;;;10.10;4.80;;;;;;;;;;5013442;28;20550;-86
2022/09/17 09:21:35;;;;;;;7.93;4.13;;;;;;;;;;5014448;28;20061;-83
2022/09/17 09:24:01;;;;;;;7.88;4.07;;;;;;;;;;5014150;28;20377;-84
2022/09/17 09:26:34;;;;;;;9.50;4.50;;;;;;;;;;5012181;28;20370;-87
2022/09/17 09:29:23;;;;;;;6.90;4.00;;;;;;;;;;5020794;28;20124;-85
2022/09/17 09:32:07;;;;;;;7.32;4.00;;;;;;;;;;5014130;28;20084;-85
2022/09/17 09:34:33;;;;;;;;;;;;;;;;;;5021988;28;20041;-84
2022/09/17 09:37:15;;;;;;;6.18;3.65;;;;;;;;;;5022488;28;19912;-86
2022/09/17 09:39:42;;;;;;;8.32;3.38;;;;;;;;;;5023712;28;20031;-85
2022/09/17 09:42:16;;;;;;;6.75;3.88;;;;;;;;;;5033670;28;20022;-85
2022/09/17 09:44:42;;;;;;;;;;;;;;;;;;5033600;28;20025;-85
2022/09/17 09:47:26;;;;;;;5.60;3.30;;;;;;;;;;5033356;28;19912;-85
2022/09/17 09:49:52;;;;;;;;;;;;;;;;;;5033591;28;20029;-88
2022/09/17 09:52:18;;;;;;;7.10;3.38;;;;;;;;;;4998893;28;20231;-87
2022/09/17 09:54:54;;;;;;;7.00;3.35;;;;;;;;;;5012635;28;20037;-85
2022/09/17 09:57:25;;;;;;;7.18;2.60;;;;;;;;;;5011637;28;20440;-86
2022/09/17 10:00:11;;;;;;;4.82;2.72;;;;;;;;;;5023800;28;20029;-88
2022/09/17 10:02:37;;;;;;;5.80;3.35;;;;;;;;;;5021002;28;20029;-85
2022/09/17 10:05:08;;;;;;;4.10;2.67;;;;;;;;;;5022609;28;20013;-89
2022/09/17 10:07:43;;;;;;;4.88;3.10;;;;;;;;;;5007372;28;20040;-86
2022/09/17 10:10:09;;;;;;;7.50;2.72;;;;;;;;;;5013425;28;20021;-87
2022/09/17 10:12:37;;;;;;;4.85;2.17;;;;;;;;;;5002941;28;20026;-89
2022/09/17 10:15:23;;;;;;;7.75;5.32;;;;;;;;;;4998743;28;20116;-92
2022/09/17 10:17:50;;;;;;;19.80;17.48;;;;;;;;;;4999389;28;20563;-89
2022/09/17 10:20:17;;;;;;;11.10;7.40;;;;;;;;;;5012759;28;20030;-89
2022/09/17 10:22:43;;;;;;;58.50;50.13;;;;;;;;;;5012034;28;20500;-92
2022/09/17 10:25:28;;;;;;;8.38;5.95;;;;;;;;;;5012574;28;20047;-91
2022/09/17 10:27:56;;;;;;;4.95;2.28;;;;;;;;;;5015236;28;20033;-86
2022/09/17 10:30:23;;;;;;;3.33;1.70;;;;;;;;;;4994903;28;20112;-89
2022/09/17 10:33:08;;;;;;;5.75;2.17;;;;;;;;;;5011699;28;20026;-92
2022/09/17 10:35:34;;;;;;;4.13;1.83;;;;;;;;;;5017724;28;20045;-92
2022/09/17 10:38:00;;;;;;;5.47;3.63;;;;;;;;;;4999495;28;20045;-88
2022/09/17 10:40:31;;;;;;;7.18;5.60;;;;;;;;;;5011837;28;20033;-91
2022/09/17 10:43:15;;;;;;;11.13;8.13;;;;;;;;;;4996087;28;20045;-87
2022/09/17 10:45:43;;;;;;;7.95;6.68;;;;;;;;;;5009725;28;20021;-89
2022/09/17 10:48:19;;;;;;;7.30;5.35;;;;;;;;;;4998274;28;20026;-90
2022/09/17 10:50:52;;;;;;;8.15;5.53;;;;;;;;;;4990844;28;20037;-90
2022/09/17 10:53:22;;;;;;;6.70;4.63;;;;;;;;;;4999258;28;20508;-86
2022/09/17 10:55:54;;;;;;;34.58;24.00;;;;;;;;;;4999049;28;20262;-90
2022/09/17 10:58:23;;;;;;;9.50;7.18;;;;;;;;;;5012799;28;20034;-87
2022/09/17 11:00:55;;;;;;;7.82;4.13;;;;;;;;;;4994923;28;20029;-86
2022/09/17 11:03:40;;;;;;;6.72;3.95;;;;;;;;;;5012948;28;20104;-90
2022/09/17 11:06:15;;;;;;;6.55;4.00;;;;;;;;;;4996661;28;20438;-88
2022/09/17 11:09:00;;;;;;;6.93;3.92;;;;;;;;;;5012311;28;20422;-89
2022/09/17 11:11:35;;;;;;;15.75;14.13;;;;;;;;;;5001134;28;20026;-86
2022/09/17 11:14:20;;;;;;;6.90;5.50;;;;;;;;;;5015088;28;20033;-91
2022/09/17 11:17:04;;;;;;;11.80;9.95;;;;;;;;;;5005555;28;20079;-91
2022/09/17 11:19:36;;;;;;;11.43;10.23;;;;;;;;;;5018461;28;20100;-86
2022/09/17 11:22:11;;;;;;;13.05;11.65;;;;;;;;;;5012279;28;20026;-85
2022/09/17 11:24:37;;;;;;;13.77;10.82;;;;;;;;;;4998039;28;20034;-84
2022/09/17 11:27:22;;;;;;;9.80;7.47;;;;;;;;;;5012664;28;20022;-87
2022/09/17 11:30:07;;;;;;;11.35;7.38;;;;;;;;;;5000874;28;20501;-86
2022/09/17 11:32:33;;;;;;;10.27;6.03;;;;;;;;;;5020720;28;20072;-87
2022/09/17 11:35:02;;;;;;;6.32;4.90;;;;;;;;;;5021128;28;20099;-89
2022/09/17 11:37:32;;;;;;;6.13;4.07;;;;;;;;;;5010168;28;20022;-89
2022/09/17 11:40:00;;;;;;;8.77;5.18;;;;;;;;;;5012212;28;20061;-86
2022/09/17 11:42:36;;;;;;;55.80;46.38;;;;;;;;;;5012739;28;20030;-82
2022/09/17 11:45:22;;;;;;;24.02;20.92;;;;;;;;;;5004725;28;20022;-84
2022/09/17 11:47:56;;;;;;;10.23;8.52;;;;;;;;;;5020608;28;20062;-82
2022/09/17 11:50:24;;;;;;;6.78;4.65;;;;;;;;;;5012296;28;20117;-86
2022/09/17 11:53:09;;;;;;;8.23;3.92;;;;;;;;;;5009309;28;20026;-87
2022/09/17 11:58:45;;;;;;;6.35;5.63;;;;;;;;;;5012349;28;20108;-87
2022/09/17 12:01:13;;;;;;;9.48;7.22;;;;;;;;;;5010495;28;20057;-87
2022/09/17 12:03:48;;;;;;;6.78;5.00;;;;;;;;;;5019519;28;20033;-86
2022/09/17 12:06:28;;;;;;;8.75;5.38;;;;;;;;;;5010836;28;20030;-87
2022/09/17 12:09:13;;;;;;;8.40;6.22;;;;;;;;;;5003841;28;20034;-84
2022/09/17 12:15:21;;;;;;;39.35;35.22;;;;;;;;;;5015699;28;20157;-90
2022/09/17 12:49:21;;;;;;;8.10;5.45;;;;;;;;;;4975090;28;20465;-90
2022/09/17 12:51:54;;;;;;;5.55;3.38;;;;;;;;;;4972333;28;20031;-91
2022/09/17 12:54:32;;;;;;;5.15;2.97;;;;;;;;;;4993262;28;20049;-92
2022/09/17 12:57:15;;;;;;;5.15;4.13;;;;;;;;;;5013470;28;20030;-85
2022/09/17 12:59:48;;;;;;;7.20;5.10;;;;;;;;;;5014189;28;20473;-85
2022/09/17 13:02:25;;;;;;;7.90;4.90;;;;;;;;;;5014213;28;20034;-86
2022/09/17 13:04:54;;;;;;;5.25;3.40;;;;;;;;;;5016909;28;20274;-85
2022/09/17 13:07:39;;;;;;;5.40;3.90;;;;;;;;;;5016666;28;20124;-86
2022/09/17 13:10:23;;;;;;;8.90;4.50;;;;;;;;;;5020104;28;20029;-85
2022/09/17 13:12:56;;;;;;;45.58;38.72;;;;;;;;;;5007838;28;20029;-82
2022/09/17 13:15:40;;;;;;;8.10;7.05;;;;;;;;;;5022521;28;20029;-83
2022/09/17 13:18:12;;;;;;;8.70;6.88;;;;;;;;;;5020405;28;20075;-85
2022/09/17 13:21:00;;;;;;;8.10;5.10;;;;;;;;;;5022489;28;20528;-83
2022/09/17 13:23:55;;;;;;;5.22;4.10;;;;;;;;;;5014453;28;20022;-83
2022/09/17 13:26:32;;;;;;;7.03;3.92;;;;;;;;;;4997517;28;20507;-83
2022/09/17 13:28:58;;;;;;;5.18;3.30;;;;;;;;;;5014182;28;20026;-82
2022/09/17 13:31:36;;;;;;;4.75;2.72;;;;;;;;;;5014087;28;20113;-81
2022/09/17 13:34:03;;;;;;;5.10;2.72;;;;;;;;;;5013759;28;20022;-82
2022/09/17 13:36:37;;;;;;;6.95;2.88;;;;;;;;;;5014067;28;20026;-82
2022/09/17 13:39:03;;;;;;;;;;;;;;;;;;5014336;28;20026;-82
2022/09/17 13:41:29;;;;;;;6.85;3.35;;;;;;;;;;5013990;28;19917;-81
2022/09/17 13:43:56;;;;;;;6.05;3.75;;;;;;;;;;5013739;28;20030;-83
2022/09/17 13:46:23;;;;;;;6.20;3.70;;;;;;;;;;5013973;28;20030;-82
2022/09/17 13:48:52;;;;;;;34.15;26.55;;;;;;;;;;5013805;28;20021;-82
2022/09/17 13:51:30;;;;;;;12.10;10.77;;;;;;;;;;5013700;28;20022;-82
2022/09/17 13:54:01;;;;;;;9.50;5.25;;;;;;;;;;5013684;28;20060;-81
2022/09/17 13:56:56;;;;;;;5.82;3.13;;;;;;;;;;5013717;28;20397;-81
2022/09/17 13:59:25;;;;;;;6.53;3.40;;;;;;;;;;4997641;28;20088;-81
2022/09/17 14:01:57;;;;;;;5.10;2.72;;;;;;;;;;5013911;28;20030;-81
2022/09/17 14:04:41;;;;;;;4.22;2.50;;;;;;;;;;5013427;28;20022;-81
2022/09/17 14:07:23;;;;;;;4.93;2.65;;;;;;;;;;5013364;28;20109;-81
2022/09/17 14:09:53;;;;;;;6.00;2.50;;;;;;;;;;5013217;28;20030;-81
2022/09/17 14:12:46;;;;;;;6.25;2.40;;;;;;;;;;5012152;28;20034;-81
2022/09/17 14:15:31;;;;;;;3.95;1.75;;;;;;;;;;5013363;28;20539;-81
2022/09/17 14:17:57;;;;;;;2.95;1.80;;;;;;;;;;5013332;28;20088;-81
2022/09/17 14:20:25;;;;;;;4.25;1.90;;;;;;;;;;5013213;28;20028;-81
2022/09/17 14:22:58;;;;;;;7.47;2.45;;;;;;;;;;5011971;28;20101;-80
2022/09/17 14:25:40;;;;;;;4.40;1.60;;;;;;;;;;5011571;28;20057;-81
2022/09/17 14:28:33;;;;;;;5.88;1.92;;;;;;;;;;5013008;28;20028;-81
2022/09/17 14:31:01;;;;;;;2.85;1.42;;;;;;;;;;5009381;28;20092;-81
2022/09/17 14:33:30;;;;;;;5.55;2.15;;;;;;;;;;5012901;28;20057;-81
2022/09/17 14:36:00;;;;;;;3.17;1.85;;;;;;;;;;5012857;28;20132;-80
2022/09/17 14:38:27;;;;;;;2.38;1.85;;;;;;;;;;5012652;28;20110;-80
2022/09/17 14:41:11;;;;;;;4.03;1.98;;;;;;;;;;5012998;28;20014;-80
2022/09/17 14:43:37;;;;;;;;;;;;;;;;;;5013469;28;20516;-80
2022/09/17 14:46:04;;;;;;;4.63;1.42;;;;;;;;;;5013046;28;19940;-82
2022/09/17 14:48:32;;;;;;;4.93;1.80;;;;;;;;;;5012802;28;20072;-80
2022/09/17 14:51:17;;;;;;;5.50;3.85;;;;;;;;;;5012830;28;20451;-80
2022/09/17 14:53:47;;;;;;;16.40;14.32;;;;;;;;;;5012757;28;20105;-80
2022/09/17 14:56:14;;;;;;;4.93;2.47;;;;;;;;;;5012603;28;20473;-80
2022/09/17 14:58:42;;;;;;;4.30;1.83;;;;;;;;;;5012857;28;20033;-80
2022/09/17 15:01:25;;;;;;;8.05;6.32;;;;;;;;;;5012803;28;20026;-81
2022/09/17 15:04:10;;;;;;;3.83;2.22;;;;;;;;;;5012729;28;20030;-81
2022/09/17 15:06:36;;;;;;;3.97;2.03;;;;;;;;;;5015360;28;20026;-79
2022/09/17 15:09:04;;;;;;;4.35;2.50;;;;;;;;;;5013185;28;20032;-79
2022/09/17 15:11:35;;;;;;;5.00;2.78;;;;;;;;;;5012469;28;20084;-78
2022/09/17 15:14:05;;;;;;;4.78;3.05;;;;;;;;;;5011440;28;20022;-80
2022/09/17 15:16:35;;;;;;;65.53;58.58;;;;;;;;;;5012201;28;20053;-79
2022/09/17 15:19:02;;;;;;;16.98;12.15;;;;;;;;;;5011603;28;20417;-80
2022/09/17 15:21:48;;;;;;;5.10;2.67;;;;;;;;;;5012311;28;20409;-80
2022/09/17 15:24:18;;;;;;;3.90;1.70;;;;;;;;;;5012348;28;20075;-79
2022/09/17 15:26:47;;;;;;;3.42;2.20;;;;;;;;;;5012598;28;20053;-80
2022/09/17 15:29:14;;;;;;;5.25;1.83;;;;;;;;;;5011200;28;20065;-80
2022/09/17 15:31:40;;;;;;;2.75;1.17;;;;;;;;;;5012463;28;20025;-80
2022/09/17 15:34:11;;;;;;;4.18;1.52;;;;;;;;;;5012234;28;20037;-79
2022/09/17 15:36:37;;;;;;;4.22;1.58;;;;;;;;;;5012398;28;20473;-79
2022/09/17 15:39:23;;;;;;;4.68;2.08;;;;;;;;;;5012259;28;20089;-80